Loxahatchee Groves, FL

2:43 PM EDT on September 16, 2014 (GMT -0400)
Fort Lauderdale Executive | Change Station
CLOSE
Current Station
Airport
Location: Fort Lauderdale,
Elevation: 13 ft
Nearby Weather Stations

Elev 13 ft 26.20 °N, 80.18 °W | Updated 50 minutes ago

Overcast
Overcast
80 °F
Feels Like 86 °F
N
7
Wind Variable Wind from South

Today
High -- | Low -- °F
--% Chance of Precip.
Yesterday
High -- | Low -- °F
Precip. -- in
7:07 AM 7:24 PM
Last Quarter, 43% visible
Pressure 30.04 in
Visibility 8.0 miles
Clouds Scattered Clouds 4500 ft
Mostly Cloudy 6000 ft
Heat Index 86 °F
Dew Point 77 °F
Humidity 90%
Rainfall 1.45 in
Snow Depth Not available.
UV 7 out of 12
Pollen 4.90 out of 12
Ozone Good
PM2.5 Moderate
Flu Activity Not available.
METAR KFXE 161753Z 17006KT 8SM TSRA SCT045 BKN060 27/25 A3003 RMK AO2 TSB11 SLP171 P0065 60105 T02670250 10294 20256 58012

More Conditions Fewer Conditions

Pressure 30.04 in
Visibility 8.0 miles
Clouds Scattered Clouds 4500 ft
Mostly Cloudy 6000 ft
Heat Index 86 °F
Dew Point 77 °F
Humidity 90%
Rainfall 1.45 in
Snow Depth Not available.
UV 7 out of 12
Pollen 4.90 out of 12
Ozone Good
PM2.5 Moderate
Flu Activity Not available.
METAR KFXE 161753Z 17006KT 8SM TSRA SCT045 BKN060 27/25 A3003 RMK AO2 TSB11 SLP171 P0065 60105 T02670250 10294 20256 58012

More Conditions Fewer Conditions

Nowcast | as of 2:21 PM EDT on September 16, 2014

Scattered showers and isolated thunderstorms will continue to develop and move southward early this afternoon. The most concentrated over the western suburbs of the East Coast metropolitan areas. Torrential downpours...frequent cloud-to- ground lightning...and wind gusts to 35 mph are possible with the strongest thunderstorms.

×

10-Day Weather Forecast

Almanac

Astronomy

Sep. 16, 2014 Rise Set
Actual Time 7:07 AM EDT 7:24 PM EDT
Civil Twilight 6:43 AM EDT 7:47 PM EDT
Nautical Twilight 6:16 AM EDT 8:14 PM EDT
Astronomical Twilight 5:49 AM EDT 8:41 PM EDT
Moon 12:39 AM EDT 2:23 PM EDT
Length of Visible Light 13h 03m
Length of Day
12h 17m
Tomorrow will be 1m 34s shorter.
Last Quarter, 43% of the Moon is Illuminated
Today
Last Quarter
Sep 24
New
Oct 1
First Quarter
Oct 8
Full
Oct 15
Last Quarter

Today's Extremes

State Highs State Lows

Community

WunderPhotos

Upload Photos

1,753,856 photos uploaded!

Nearby

Air Quality

  Air Quality AQ Index Pollutant
Yesterday Good
PM2.5
Yesterday Good
OZONE
Current Moderate
PM2.5
Current Good
OZONE
Tuesday Good
OZONE
Tuesday Good
PM2.5
Wednesday Good
OZONE
Wednesday Good
PM2.5

Snow Depth

Station Depth Elevation
No new snow has been reported.

Earthquake Activity

City Distance Mag. Time & Date
No recent earthquake activity has been reported nearby.
Minimum magnitude displayed is 2.5.

Coastal Water Temperatures

Place Temperature
Lake Worth, FL 86.0 °F
Virginia Key, FL 87.1 °F

Nearby Weather Stations